Time;durP1;ratioP1;P1;durP2;ratioP2;P2;SDS_P1;SDS_P2;PMS_P1;PMS_P2;Temp;Humidity;BMP_temperature;BMP_pressure;BME280_temperature;BME280_humidity;BME280_pressure;Samples;Min_cycle;Max_cycle;Signal;HPM_P1;HPM_P2
2021/10/12 00:01:18;;;;;;;9.85;6.63;;;11.40;68.40;;;10.69;54.64;95252.31;5019232;28;20308;-77
2021/10/12 00:03:46;;;;;;;10.93;7.50;;;11.30;68.20;;;10.71;54.69;95255.56;5064358;28;20212;-77
2021/10/12 00:06:14;;;;;;;10.88;7.20;;;11.30;68.40;;;10.71;55.02;95254.75;5047248;28;20234;-78
2021/10/12 00:08:41;;;;;;;8.82;7.25;;;11.20;68.60;;;10.72;54.78;95248.50;5031108;28;20224;-77
2021/10/12 00:11:08;;;;;;;9.55;7.18;;;11.20;68.60;;;10.70;54.56;95248.69;5045414;28;20682;-78
2021/10/12 00:13:35;;;;;;;11.07;7.50;;;11.20;68.70;;;10.73;55.12;95253.56;5033990;28;20637;-77
2021/10/12 00:16:03;;;;;;;10.80;8.43;;;11.20;68.80;;;10.76;54.98;95243.72;5049946;28;20203;-78
2021/10/12 00:18:33;;;;;;;10.10;7.35;;;11.20;69.00;;;10.75;54.94;95248.13;5048064;28;20722;-78
2021/10/12 00:21:00;;;;;;;10.00;7.43;;;11.20;68.80;;;10.67;55.02;95243.00;5048288;28;20575;-77
2021/10/12 00:23:27;;;;;;;8.57;6.80;;;11.20;68.80;;;10.69;54.45;95251.50;5048366;28;20199;-78
2021/10/12 00:25:54;;;;;;;9.60;7.25;;;11.20;68.80;;;10.70;54.77;95247.88;5050028;28;20295;-77
2021/10/12 00:28:22;;;;;;;9.80;6.97;;;11.20;68.90;;;10.69;54.96;95244.44;5032426;28;20747;-78
2021/10/12 00:30:50;;;;;;;9.77;6.93;;;11.20;69.00;;;10.72;54.99;95238.81;5017002;28;20196;-77
2021/10/12 00:33:18;;;;;;;12.43;8.88;;;11.20;69.20;;;10.76;55.09;95246.34;5068244;28;20242;-77
2021/10/12 00:35:45;;;;;;;10.13;8.00;;;11.20;69.30;;;10.79;55.15;95252.03;5023568;28;20200;-77
2021/10/12 00:38:12;;;;;;;9.95;7.65;;;11.20;69.30;;;10.81;55.00;95242.13;5030189;28;20196;-77
2021/10/12 00:40:40;;;;;;;12.15;8.05;;;11.20;69.40;;;10.86;54.81;95238.97;5033315;28;20207;-77
2021/10/12 00:43:08;;;;;;;16.00;9.40;;;11.20;69.40;;;10.89;55.95;95233.38;5050887;28;20704;-77
2021/10/12 00:45:37;;;;;;;14.07;9.40;;;11.30;69.80;;;10.91;55.35;95238.41;5050425;28;20204;-77
2021/10/12 00:48:08;;;;;;;12.30;8.90;;;11.30;69.70;;;10.93;55.77;95233.81;5033734;28;20488;-77
2021/10/12 00:50:39;;;;;;;11.85;8.63;;;11.30;69.80;;;10.94;55.52;95231.00;5050826;28;20204;-78
2021/10/12 00:53:06;;;;;;;11.48;8.57;;;11.30;69.90;;;10.95;55.77;95234.41;5069935;28;20225;-79
2021/10/12 00:55:34;;;;;;;15.93;8.73;;;11.30;69.70;;;10.96;55.49;95234.25;5034291;28;20201;-78
2021/10/12 00:58:02;;;;;;;13.15;8.88;;;11.30;69.80;;;10.95;55.63;95232.63;5050485;28;20295;-78
2021/10/12 01:00:29;;;;;;;12.02;8.95;;;11.40;69.70;;;10.95;56.00;95234.41;5025645;28;20601;-78
2021/10/12 01:02:56;;;;;;;13.25;9.30;;;11.40;70.00;;;10.97;55.79;95232.44;5037364;28;20219;-77
2021/10/12 01:05:23;;;;;;;13.20;9.45;;;11.40;70.00;;;10.96;56.04;95231.63;5053485;28;20265;-77
2021/10/12 01:07:51;;;;;;;12.90;9.32;;;11.40;70.00;;;10.93;56.09;95226.72;5037547;28;20216;-77
2021/10/12 01:10:18;;;;;;;13.65;9.65;;;11.40;70.00;;;10.93;56.05;95221.50;5053219;28;20192;-77
2021/10/12 01:12:46;;;;;;;13.95;9.45;;;11.50;70.20;;;10.94;55.59;95217.06;5037510;28;20266;-77
2021/10/12 01:15:14;;;;;;;15.93;10.35;;;11.40;70.10;;;10.93;55.99;95215.44;5054829;28;20187;-77
2021/10/12 01:17:41;;;;;;;15.05;11.02;;;11.40;70.00;;;10.89;56.37;95212.38;5052987;28;20215;-78
2021/10/12 01:20:12;;;;;;;15.20;10.48;;;11.40;70.10;;;10.88;55.98;95214.16;5033900;28;20202;-78
2021/10/12 01:22:48;;;;;;;18.02;12.32;;;11.30;70.30;;;10.84;57.01;95207.69;5042986;28;20223;-78
2021/10/12 01:25:16;;;;;;;18.13;12.15;;;11.40;71.10;;;10.82;56.90;95206.25;5053433;28;20628;-78
2021/10/12 01:27:44;;;;;;;17.02;12.55;;;11.30;70.60;;;10.78;57.13;95208.41;5053428;28;20462;-77
2021/10/12 01:30:13;;;;;;;17.15;11.77;;;11.30;70.50;;;10.69;57.04;95196.41;5036519;28;20243;-78
2021/10/12 01:32:45;;;;;;;20.08;13.00;;;11.30;70.40;;;10.66;57.40;95204.66;5052957;28;20234;-78
2021/10/12 01:35:15;;;;;;;18.75;13.32;;;11.30;70.90;;;10.62;57.53;95192.88;5084796;28;20199;-78
2021/10/12 01:37:43;;;;;;;16.60;12.27;;;11.20;70.70;;;10.60;57.78;95202.78;5053664;28;20319;-77
2021/10/12 01:40:13;;;;;;;23.00;15.43;;;11.20;70.60;;;10.59;58.24;95195.91;5037059;28;20269;-78
2021/10/12 01:42:41;;;;;;;20.40;13.75;;;11.20;71.20;;;10.61;58.17;95199.13;5051621;28;20244;-78
2021/10/12 01:45:10;;;;;;;18.17;12.55;;;11.10;71.30;;;10.63;57.74;95194.53;5054723;28;20254;-78
2021/10/12 01:47:39;;;;;;;17.55;12.30;;;11.10;71.30;;;10.61;57.63;95181.59;5036464;28;20230;-78
2021/10/12 01:50:11;;;;;;;19.85;13.02;;;11.10;71.30;;;10.65;58.02;95185.47;5052986;28;20658;-78
2021/10/12 01:52:39;;;;;;;20.63;14.00;;;11.10;71.30;;;10.67;57.40;95169.56;5051302;28;20216;-78
2021/10/12 01:55:08;;;;;;;20.13;13.80;;;11.10;71.10;;;10.66;57.46;95176.59;5052283;28;20200;-78
2021/10/12 01:57:37;;;;;;;22.40;14.80;;;11.10;71.00;;;10.63;57.60;95166.50;5052471;28;20274;-78
2021/10/12 02:00:06;;;;;;;20.00;13.52;;;11.10;71.10;;;10.56;57.41;95158.53;5019968;28;20204;-77
2021/10/12 02:02:37;;;;;;;21.10;13.88;;;11.10;71.10;;;10.51;57.64;95176.66;5051410;28;20231;-77
2021/10/12 02:05:05;;;;;;;21.48;13.73;;;11.10;70.80;;;10.44;57.90;95170.50;5032049;28;20679;-78
2021/10/12 02:07:33;;;;;;;19.27;13.77;;;11.00;70.80;;;10.36;58.03;95157.47;5018235;28;20230;-78
2021/10/12 02:10:00;;;;;;;19.60;13.38;;;11.00;70.90;;;10.27;57.55;95164.63;5052240;28;20203;-78
2021/10/12 02:12:29;;;;;;;19.27;13.25;;;10.90;70.70;;;10.20;57.61;95164.53;5086020;28;20239;-77
2021/10/12 02:14:57;;;;;;;19.30;13.70;;;10.90;70.90;;;10.13;57.80;95157.59;5056564;28;20199;-78
2021/10/12 02:17:25;;;;;;;18.52;12.88;;;10.80;70.90;;;10.10;57.75;95158.78;5016361;28;20248;-78
2021/10/12 02:19:52;;;;;;;20.10;13.38;;;10.80;71.00;;;10.06;57.75;95162.78;5030274;28;20702;-78
2021/10/12 02:22:20;;;;;;;19.75;12.98;;;10.80;71.00;;;10.04;57.86;95159.50;5035338;28;20640;-78
2021/10/12 02:24:47;;;;;;;17.85;12.48;;;10.70;71.10;;;9.98;58.38;95155.81;5036327;28;20207;-78
2021/10/12 02:27:14;;;;;;;21.05;13.88;;;10.60;71.10;;;10.05;57.98;95153.28;5052302;28;20208;-77
2021/10/12 02:29:41;;;;;;;20.88;14.60;;;10.60;71.40;;;10.08;58.03;95160.75;5031847;28;20725;-77
2021/10/12 02:32:08;;;;;;;21.13;14.77;;;10.60;71.50;;;10.09;58.59;95141.44;5049059;28;20233;-77
2021/10/12 02:34:37;;;;;;;22.02;14.65;;;10.60;71.70;;;10.11;59.16;95142.06;5052183;28;20262;-77
2021/10/12 02:37:04;;;;;;;21.02;15.02;;;10.60;72.00;;;10.16;58.97;95154.63;5047859;28;20213;-78
2021/10/12 02:39:31;;;;;;;20.65;14.82;;;10.60;72.10;;;10.18;59.68;95153.44;5016076;28;20296;-76
2021/10/12 02:41:58;;;;;;;18.42;13.48;;;10.70;72.40;;;10.23;59.18;95148.47;5035333;28;20639;-77
2021/10/12 02:44:26;;;;;;;22.90;15.85;;;10.70;72.30;;;10.24;60.62;95144.84;5052224;28;20270;-78
2021/10/12 02:46:53;;;;;;;20.83;14.63;;;10.70;72.80;;;10.27;60.03;95132.38;5051171;28;20216;-78
2021/10/12 02:49:20;;;;;;;22.55;15.48;;;10.70;72.70;;;10.28;60.33;95134.81;5035531;28;20204;-78
2021/10/12 02:51:48;;;;;;;22.52;13.65;;;10.70;72.60;;;10.27;60.19;95133.19;5018514;28;20303;-78
2021/10/12 02:54:15;;;;;;;20.88;14.00;;;10.70;72.80;;;10.26;60.07;95128.94;5035328;28;20317;-78
2021/10/12 02:56:42;;;;;;;19.45;12.98;;;10.70;72.70;;;10.21;60.63;95131.28;5047803;28;20216;-78
2021/10/12 02:59:11;;;;;;;17.30;12.20;;;10.70;72.80;;;10.24;60.89;95134.38;5015670;28;20279;-78
2021/10/12 03:01:38;;;;;;;19.60;13.13;;;10.70;72.70;;;10.25;60.36;95136.00;5034128;28;20255;-78
2021/10/12 03:04:06;;;;;;;17.42;11.95;;;10.70;72.90;;;10.26;60.22;95134.16;5051014;28;20200;-77
2021/10/12 03:06:33;;;;;;;17.02;11.57;;;10.70;72.80;;;10.27;60.24;95137.63;5050907;28;20306;-78
2021/10/12 03:09:00;;;;;;;17.85;12.40;;;10.70;72.70;;;10.25;60.02;95128.13;5051526;28;20274;-78
2021/10/12 03:11:28;;;;;;;17.95;13.02;;;10.80;72.80;;;10.29;60.26;95135.59;5034201;28;20242;-78
2021/10/12 03:13:55;;;;;;;17.58;11.10;;;10.80;73.00;;;10.25;60.37;95129.91;5051553;28;20231;-79
2021/10/12 03:16:22;;;;;;;14.32;11.50;;;10.80;72.80;;;10.27;59.91;95125.31;5031256;28;20636;-77
2021/10/12 03:18:50;;;;;;;15.32;10.02;;;10.80;72.80;;;10.29;59.48;95119.88;5051103;28;20190;-78
2021/10/12 03:21:18;;;;;;;14.68;9.95;;;10.80;72.60;;;10.29;59.83;95118.09;5034934;28;20243;-78
2021/10/12 03:23:46;;;;;;;17.08;9.90;;;10.80;72.70;;;10.29;59.62;95119.88;5052710;28;20200;-78
2021/10/12 03:26:13;;;;;;;12.73;9.57;;;10.80;72.70;;;10.27;59.68;95114.81;5034318;28;20292;-78
2021/10/12 03:28:40;;;;;;;13.68;9.43;;;10.80;72.60;;;10.25;59.92;95109.78;5050737;28;20231;-78
2021/10/12 03:31:07;;;;;;;14.40;9.10;;;10.90;72.70;;;10.26;59.84;95107.97;5050959;28;20678;-78
2021/10/12 03:33:35;;;;;;;12.45;9.55;;;10.80;72.60;;;10.23;60.04;95103.09;5033955;28;20689;-79
2021/10/12 03:36:12;;;;;;;11.68;7.90;;;10.80;72.50;;;10.22;59.28;95109.34;5034413;28;20211;-78
2021/10/12 03:38:40;;;;;;;12.32;8.63;;;10.70;72.30;;;10.17;59.32;95099.41;5051126;28;20234;-78
2021/10/12 03:41:07;;;;;;;12.93;8.65;;;10.70;72.20;;;10.15;59.22;95111.06;5034537;28;20227;-78
2021/10/12 03:43:35;;;;;;;13.13;9.68;;;10.70;72.30;;;10.09;60.30;95110.81;5018160;28;20227;-78
2021/10/12 03:46:03;;;;;;;11.43;8.48;;;10.70;72.70;;;10.07;59.68;95102.31;5050717;28;20218;-78
2021/10/12 03:48:30;;;;;;;11.32;8.07;;;10.70;72.50;;;10.06;59.73;95100.69;5017423;28;20192;-77
2021/10/12 03:50:57;;;;;;;11.40;8.00;;;10.70;72.60;;;10.08;59.86;95103.94;5050980;28;20211;-78
2021/10/12 03:53:25;;;;;;;10.57;7.82;;;10.70;72.50;;;10.08;59.46;95090.00;5030795;28;20305;-77
2021/10/12 03:55:52;;;;;;;10.82;7.78;;;10.60;72.50;;;10.08;59.39;95096.06;5033915;28;20785;-78
2021/10/12 03:58:20;;;;;;;15.05;8.45;;;10.60;72.50;;;10.07;60.10;95098.84;5050647;28;20196;-77
2021/10/12 04:00:47;;;;;;;14.35;8.43;;;10.60;72.70;;;10.07;59.80;95106.72;5050505;28;20283;-78
2021/10/12 04:03:14;;;;;;;16.25;8.65;;;10.60;72.70;;;10.06;60.12;95099.88;5050946;28;20294;-78
2021/10/12 04:05:42;;;;;;;10.98;8.32;;;10.60;72.70;;;10.01;59.82;95092.56;5050811;28;20294;-77
2021/10/12 04:08:10;;;;;;;12.88;9.35;;;10.60;72.70;;;10.03;60.63;95106.31;5051086;28;20192;-78
2021/10/12 04:10:37;;;;;;;12.35;8.10;;;10.60;73.10;;;10.05;60.13;95108.72;5056580;28;20200;-78
2021/10/12 04:13:05;;;;;;;13.60;9.23;;;10.60;72.90;;;10.04;60.20;95104.47;5030842;28;20683;-78
2021/10/12 04:15:34;;;;;;;14.45;9.10;;;10.50;72.90;;;10.04;60.25;95094.00;5014726;28;20192;-78
2021/10/12 04:18:02;;;;;;;14.27;8.70;;;10.60;73.00;;;10.03;60.26;95100.22;5047724;28;20196;-77
2021/10/12 04:20:32;;;;;;;14.43;8.98;;;10.60;73.00;;;10.05;60.29;95103.50;5050432;28;20253;-78
2021/10/12 04:22:59;;;;;;;11.90;8.35;;;10.50;73.20;;;10.04;60.20;95099.25;5050750;28;20198;-78
2021/10/12 04:25:27;;;;;;;12.43;8.98;;;10.50;73.00;;;10.03;60.30;95098.44;5051459;28;20239;-78
2021/10/12 04:27:55;;;;;;;12.88;8.88;;;10.60;73.10;;;10.04;60.31;95100.03;5059755;28;20333;-78
2021/10/12 04:30:22;;;;;;;12.82;9.05;;;10.50;73.00;;;10.04;60.38;95097.41;5038033;28;20192;-77
2021/10/12 04:32:50;;;;;;;13.27;9.45;;;10.50;73.10;;;10.01;60.53;95084.69;5055627;28;20697;-77
2021/10/12 04:35:17;;;;;;;13.43;8.75;;;10.50;73.20;;;10.02;60.20;95103.84;5070738;28;20200;-77
2021/10/12 04:37:44;;;;;;;14.48;8.13;;;10.50;73.10;;;10.01;60.35;95092.56;5054692;28;20226;-78
2021/10/12 04:40:12;;;;;;;10.90;8.20;;;10.50;73.00;;;10.01;60.41;95096.97;5064166;28;20196;-78
2021/10/12 04:42:43;;;;;;;12.63;7.30;;;10.50;72.90;;;9.96;60.15;95088.84;5054292;28;20228;-78
2021/10/12 04:45:11;;;;;;;12.70;8.20;;;10.50;72.90;;;9.99;60.13;95101.59;5037553;28;20204;-78
2021/10/12 04:47:41;;;;;;;15.55;7.93;;;10.50;73.00;;;9.97;60.21;95095.72;5037342;28;20251;-78
2021/10/12 04:50:09;;;;;;;13.45;8.32;;;10.50;73.20;;;9.94;60.61;95099.53;5054173;28;20650;-78
2021/10/12 04:52:37;;;;;;;15.00;8.32;;;10.50;73.10;;;9.91;60.31;95085.00;5053992;28;20706;-79
2021/10/12 04:55:05;;;;;;;13.32;8.25;;;10.50;73.10;;;9.91;60.50;95077.13;5033489;28;20200;-78
2021/10/12 04:57:33;;;;;;;11.23;7.75;;;10.50;73.20;;;9.92;60.15;95086.63;5020774;28;20204;-78
2021/10/12 05:00:00;;;;;;;13.18;7.93;;;10.40;73.10;;;9.94;60.11;95083.81;5037812;28;20219;-78
2021/10/12 05:02:27;;;;;;;12.90;7.93;;;10.40;73.00;;;9.93;59.98;95075.13;5037401;28;20768;-78
2021/10/12 05:04:56;;;;;;;12.10;7.32;;;10.50;73.10;;;9.93;60.29;95069.06;5037679;28;20657;-78
2021/10/12 05:07:25;;;;;;;10.27;7.13;;;10.40;73.00;;;9.89;59.95;95059.97;5036316;28;20250;-78
2021/10/12 05:09:53;;;;;;;10.20;7.47;;;10.40;73.70;;;9.85;59.75;95070.00;5054056;28;20212;-78
2021/10/12 05:12:20;;;;;;;12.25;7.15;;;10.40;72.60;;;9.77;59.58;95072.72;5053001;28;20232;-78
2021/10/12 05:14:47;;;;;;;11.35;7.30;;;10.40;72.40;;;9.68;59.46;95069.41;5037298;28;20245;-79
2021/10/12 05:17:22;;;;;;;13.27;7.50;;;10.30;72.30;;;9.58;59.90;95074.06;5030054;28;20649;-78
2021/10/12 05:19:49;;;;;;;10.85;7.18;;;10.30;73.20;;;9.51;59.75;95066.16;5053867;28;20191;-78
2021/10/12 05:22:18;;;;;;;8.68;6.05;;;10.20;72.40;;;9.48;59.70;95071.75;5052856;28;20215;-78
2021/10/12 05:24:45;;;;;;;8.90;6.43;;;10.20;72.50;;;9.45;59.78;95064.25;5070521;28;20269;-78
2021/10/12 05:27:13;;;;;;;10.57;6.55;;;10.10;72.50;;;9.46;59.82;95071.13;5053340;28;20220;-78
2021/10/12 05:29:40;;;;;;;9.75;6.38;;;10.10;72.60;;;9.44;59.98;95062.63;5035877;28;20666;-78
2021/10/12 05:32:09;;;;;;;10.48;6.68;;;10.10;72.70;;;9.47;59.93;95067.50;5036493;28;20298;-78
2021/10/12 05:34:36;;;;;;;9.70;6.13;;;10.00;72.90;;;9.50;59.95;95061.91;5036964;28;20203;-78
2021/10/12 05:37:04;;;;;;;11.77;7.13;;;10.00;72.90;;;9.55;60.39;95063.97;5036041;28;20220;-78
2021/10/12 05:39:32;;;;;;;10.98;6.68;;;10.00;73.10;;;9.56;60.54;95055.94;5020876;28;20269;-78
2021/10/12 05:41:59;;;;;;;11.40;6.65;;;10.10;73.30;;;9.65;60.47;95067.13;5053563;28;20204;-78
2021/10/12 05:44:26;;;;;;;10.13;6.90;;;10.10;73.40;;;9.67;60.36;95052.06;5053397;28;20234;-78
2021/10/12 05:46:53;;;;;;;11.98;6.95;;;10.10;73.50;;;9.78;60.65;95064.66;5036321;28;20207;-78
2021/10/12 05:49:21;;;;;;;10.52;6.50;;;10.20;73.60;;;9.86;60.23;95074.25;5032656;28;20659;-78
2021/10/12 05:51:48;;;;;;;8.93;6.35;;;10.20;73.70;;;9.93;60.44;95072.50;5040800;28;20225;-78
2021/10/12 05:54:19;;;;;;;8.20;5.70;;;10.30;73.70;;;10.00;59.63;95071.78;5057719;28;20220;-78
2021/10/12 05:56:55;;;;;;;9.65;6.47;;;10.30;73.60;;;10.05;60.27;95074.66;5036374;28;20226;-78
2021/10/12 05:59:23;;;;;;;8.68;6.20;;;10.40;73.60;;;10.03;59.79;95067.00;5053263;28;20215;-78
2021/10/12 06:01:50;;;;;;;7.10;5.35;;;10.40;73.50;;;10.11;59.70;95076.53;5036184;28;20230;-78
2021/10/12 06:04:17;;;;;;;11.27;5.75;;;10.60;73.50;;;10.08;59.55;95069.03;5036428;28;20630;-78
2021/10/12 06:06:46;;;;;;;8.07;5.50;;;10.50;73.30;;;10.16;59.41;95078.63;5051929;28;20215;-79
2021/10/12 06:09:14;;;;;;;12.45;5.97;;;10.50;73.20;;;10.17;59.62;95078.44;5052815;28;20238;-78
2021/10/12 06:11:41;;;;;;;6.85;4.90;;;10.60;73.10;;;10.19;59.53;95079.06;5032926;28;20256;-78
2021/10/12 06:14:08;;;;;;;7.55;4.70;;;10.60;73.20;;;10.22;59.44;95075.25;5065891;28;20255;-79
2021/10/12 06:16:35;;;;;;;7.85;4.80;;;10.60;73.10;;;10.24;59.43;95078.47;5029166;28;20306;-78
2021/10/12 06:19:03;;;;;;;7.57;4.80;;;10.60;73.10;;;10.28;59.46;95077.13;5019257;28;20200;-78
2021/10/12 06:21:31;;;;;;;11.35;5.75;;;10.60;73.00;;;10.25;59.62;95067.84;5032243;28;20213;-78
2021/10/12 06:23:58;;;;;;;10.07;5.25;;;10.70;73.10;;;10.29;59.42;95067.44;5052781;28;20200;-78
2021/10/12 06:26:25;;;;;;;6.68;4.38;;;10.70;73.00;;;10.30;59.31;95071.69;5035989;28;20561;-78
2021/10/12 06:28:52;;;;;;;7.30;5.00;;;10.70;72.90;;;10.30;59.48;95071.69;5052131;28;20654;-78
2021/10/12 06:31:20;;;;;;;11.73;5.00;;;10.70;73.80;;;10.32;59.55;95074.94;5052374;28;20302;-77
2021/10/12 06:33:48;;;;;;;8.77;4.70;;;10.70;72.90;;;10.34;59.23;95079.00;5052339;28;20315;-78
2021/10/12 06:36:15;;;;;;;6.13;4.80;;;10.80;73.00;;;10.38;59.28;95077.66;5047268;28;20219;-78
2021/10/12 06:38:43;;;;;;;8.73;5.20;;;10.80;73.00;;;10.39;59.30;95073.25;5031757;28;20223;-78
2021/10/12 06:41:11;;;;;;;12.07;5.35;;;10.80;73.00;;;10.39;59.38;95068.81;5047125;28;20212;-80
2021/10/12 06:43:38;;;;;;;8.48;5.10;;;10.80;73.00;;;10.40;59.50;95072.25;5051666;28;20239;-78
2021/10/12 06:46:05;;;;;;;8.93;4.90;;;10.80;72.90;;;10.35;59.34;95070.16;5034911;28;20294;-78
2021/10/12 06:48:32;;;;;;;6.57;4.95;;;10.80;72.80;;;10.42;59.47;95072.84;5034831;28;20561;-79
2021/10/12 06:50:59;;;;;;;11.80;5.50;;;10.80;72.80;;;10.38;59.70;95074.25;5051219;28;20244;-78
2021/10/12 06:53:45;;;;;;;9.25;5.30;;;10.80;72.80;;;10.37;59.70;95070.78;5037072;28;20226;-78
2021/10/12 06:56:13;;;;;;;9.35;5.30;;;10.80;72.70;;;10.36;59.22;95069.19;5034063;28;20718;-79
2021/10/12 06:58:43;;;;;;;7.93;4.40;;;10.90;73.00;;;10.39;59.40;95074.03;5030969;28;20593;-78
2021/10/12 07:01:20;;;;;;;6.85;4.50;;;10.90;72.90;;;10.42;59.41;95072.84;5055792;28;20270;-78
2021/10/12 07:03:47;;;;;;;8.80;4.32;;;10.80;72.80;;;10.46;59.20;95066.25;5047918;28;20206;-79
2021/10/12 07:06:17;;;;;;;7.65;4.20;;;10.90;72.90;;;10.46;59.38;95068.06;5042924;28;20273;-77
2021/10/12 07:08:44;;;;;;;9.25;5.75;;;10.90;72.90;;;10.50;59.13;95067.50;5018727;28;20204;-78
2021/10/12 07:11:11;;;;;;;7.80;4.93;;;10.90;72.90;;;10.49;59.55;95065.88;5051554;28;20207;-79
2021/10/12 07:13:38;;;;;;;10.35;6.03;;;10.90;72.90;;;10.49;59.56;95068.50;5050015;28;20318;-78
2021/10/12 07:16:05;;;;;;;9.18;4.80;;;11.00;73.00;;;10.52;59.62;95068.13;5035040;28;20274;-79
2021/10/12 07:18:33;;;;;;;7.38;4.43;;;11.00;73.00;;;10.53;59.75;95061.06;5034926;28;20317;-79
2021/10/12 07:21:00;;;;;;;12.02;5.70;;;11.00;73.20;;;10.63;59.66;95066.81;5034841;28;20227;-79
2021/10/12 07:23:27;;;;;;;6.85;4.55;;;11.10;73.20;;;10.68;59.68;95055.75;5017906;28;20192;-79
2021/10/12 07:25:55;;;;;;;8.40;4.88;;;11.00;73.10;;;10.72;59.65;95055.19;5052958;28;20203;-78
2021/10/12 07:28:22;;;;;;;6.32;4.25;;;11.10;73.20;;;10.79;59.43;95057.03;5047684;28;20292;-79
2021/10/12 07:30:49;;;;;;;7.32;4.43;;;11.10;73.20;;;10.85;59.42;95053.66;5015322;28;20205;-79
2021/10/12 07:33:16;;;;;;;9.88;5.60;;;11.20;73.20;;;10.94;59.29;95049.09;5022527;28;20277;-79
2021/10/12 07:35:54;;;;;;;8.73;4.32;;;11.30;73.10;;;11.00;58.84;95050.97;5035394;28;20273;-78
2021/10/12 07:38:22;;;;;;;6.82;4.00;;;11.30;73.10;;;11.05;59.04;95052.00;5034272;28;20232;-78
2021/10/12 07:40:49;;;;;;;5.53;3.47;;;11.30;72.90;;;11.10;58.80;95050.63;5030603;28;20200;-79
2021/10/12 07:43:16;;;;;;;4.97;3.83;;;11.40;72.80;;;11.10;58.61;95048.00;5033975;28;20650;-78
2021/10/12 07:45:45;;;;;;;6.57;3.80;;;11.40;72.70;;;11.13;58.74;95055.47;5049994;28;20309;-78
2021/10/12 07:48:12;;;;;;;7.28;3.80;;;11.50;72.80;;;11.16;58.88;95049.88;5034662;28;20242;-79
2021/10/12 07:50:39;;;;;;;7.28;3.80;;;11.50;72.80;;;11.23;58.62;95048.09;5034603;28;20212;-78
2021/10/12 07:53:07;;;;;;;5.40;3.30;;;11.50;72.80;;;11.32;58.70;95043.50;5033656;28;20223;-79
2021/10/12 07:55:38;;;;;;;7.75;4.28;;;11.50;72.90;;;11.42;58.56;95043.16;5033736;28;20265;-79
2021/10/12 07:58:07;;;;;;;7.50;3.40;;;11.60;72.90;;;11.51;58.52;95037.53;5034814;28;20188;-79
2021/10/12 08:00:35;;;;;;;4.82;3.63;;;11.70;72.90;;;11.59;58.08;95047.06;5067331;28;20567;-79
2021/10/12 08:03:04;;;;;;;5.78;3.45;;;11.70;72.80;;;11.63;58.05;95045.69;5038680;28;20215;-78
2021/10/12 08:05:32;;;;;;;7.07;4.10;;;11.80;72.50;;;11.60;57.60;95046.06;5034487;28;20200;-78
2021/10/12 08:07:59;;;;;;;6.60;3.80;;;12.00;72.30;;;11.52;57.66;95035.72;5035851;28;20207;-78
2021/10/12 08:10:32;;;;;;;6.55;4.10;;;11.90;71.90;;;11.51;57.73;95037.53;5052116;28;20721;-78
2021/10/12 08:13:02;;;;;;;7.80;3.70;;;11.90;71.80;;;11.46;57.78;95034.69;5015244;28;20242;-77
2021/10/12 08:15:30;;;;;;;4.90;2.95;;;11.90;71.80;;;11.50;57.69;95040.38;5075985;28;20195;-79
2021/10/12 08:17:58;;;;;;;5.03;3.40;;;12.00;71.90;;;11.54;57.82;95033.72;5054464;28;20254;-79
2021/10/12 08:20:26;;;;;;;6.60;3.53;;;11.90;71.90;;;11.60;57.75;95024.25;5051851;28;20275;-78
2021/10/12 08:22:54;;;;;;;5.70;3.50;;;12.00;72.10;;;11.67;57.84;95023.28;5056447;28;20215;-78
2021/10/12 08:25:21;;;;;;;4.60;3.45;;;12.00;72.10;;;11.69;57.55;95016.00;5054465;28;20192;-79
2021/10/12 08:27:48;;;;;;;5.35;3.60;;;12.00;72.10;;;11.84;57.53;95021.13;5038340;28;20215;-79
2021/10/12 08:30:16;;;;;;;5.55;3.70;;;12.10;72.20;;;11.96;57.56;95020.53;5037812;28;20230;-79
2021/10/12 08:32:44;;;;;;;8.50;3.63;;;12.10;72.20;;;12.09;57.25;95017.97;5054596;28;20211;-78
2021/10/12 08:35:12;;;;;;;6.45;3.60;;;12.20;72.20;;;12.22;57.38;95011.13;5054755;28;20276;-79
2021/10/12 08:37:40;;;;;;;5.45;3.15;;;12.30;72.30;;;12.35;57.15;95018.25;5038181;28;20239;-79
2021/10/12 08:40:14;;;;;;;6.78;3.97;;;12.40;72.30;;;12.46;57.33;95007.13;5050218;28;20216;-79
2021/10/12 08:42:49;;;;;;;4.80;3.40;;;12.50;72.30;;;12.57;56.85;95006.53;5054297;28;20298;-79
2021/10/12 08:45:20;;;;;;;4.45;3.72;;;12.60;72.10;;;12.69;56.91;95006.72;5036756;28;20597;-79
2021/10/12 08:47:50;;;;;;;4.32;3.03;;;12.70;72.30;;;12.84;56.94;94996.00;5021802;28;20697;-78
2021/10/12 08:50:22;;;;;;;5.03;3.28;;;12.80;72.30;;;13.01;56.74;95000.84;5054016;28;20198;-78
2021/10/12 08:52:49;;;;;;;5.47;3.25;;;12.90;72.30;;;13.08;56.70;94989.28;5071813;28;20227;-77
2021/10/12 08:55:17;;;;;;;5.25;3.33;;;13.00;72.20;;;13.23;56.18;94980.31;5053877;28;20195;-79
2021/10/12 08:57:46;;;;;;;3.50;3.00;;;13.10;72.00;;;13.24;55.62;94979.31;5051741;28;20216;-79
2021/10/12 09:00:18;;;;;;;6.68;3.40;;;13.20;71.40;;;13.17;55.47;94978.53;5017796;28;20192;-78
2021/10/12 09:05:55;;;;;;;4.50;3.47;;;13.30;71.00;;;12.97;55.85;94992.53;5053779;28;20268;-79
2021/10/12 09:08:35;;;;;;;4.30;3.35;;;13.40;70.70;;;12.91;56.04;94975.72;5053275;28;20191;-79
2021/10/12 09:11:07;;;;;;;4.68;2.90;;;13.30;70.80;;;12.87;56.48;94971.91;5033156;28;20630;-79
2021/10/12 09:13:45;;;;;;;4.78;3.60;;;13.30;71.10;;;12.86;56.45;94966.84;5084249;28;20700;-79
2021/10/12 09:16:15;;;;;;;4.38;3.35;;;13.20;71.20;;;12.86;56.63;94970.28;5067701;28;20245;-79
2021/10/12 09:18:46;;;;;;;5.40;3.40;;;13.20;71.20;;;12.85;56.49;94967.84;5036439;28;20642;-78
2021/10/12 09:21:28;;;;;;;8.18;4.20;;;13.20;71.20;;;12.81;56.63;94967.44;5053398;28;20341;-79
2021/10/12 09:24:13;;;;;;;4.88;3.80;;;13.20;71.30;;;12.74;56.73;94972.72;5049822;28;20188;-80
2021/10/12 09:26:44;;;;;;;5.32;3.47;;;13.20;71.30;;;12.71;56.64;94965.22;5066717;28;20712;-79
2021/10/12 09:29:30;;;;;;;4.68;3.40;;;13.20;71.10;;;12.70;56.74;94963.59;5051134;28;20203;-78
2021/10/12 09:32:06;;;;;;;4.90;3.38;;;13.10;71.30;;;12.69;56.84;94964.63;5035348;28;20719;-79
2021/10/12 09:34:35;;;;;;;7.70;3.72;;;13.10;71.30;;;12.68;56.87;94963.00;5068423;28;20285;-79
2021/10/12 09:37:05;;;;;;;6.15;4.00;;;13.10;71.30;;;12.63;56.90;94954.91;5036259;28;20215;-78
2021/10/12 09:39:42;;;;;;;5.00;3.97;;;13.10;71.30;;;12.61;56.75;94960.38;5050140;28;20276;-78
2021/10/12 09:42:13;;;;;;;6.30;3.90;;;13.00;71.40;;;12.60;56.91;94956.13;5052962;28;20218;-78
2021/10/12 09:44:59;;;;;;;4.95;3.95;;;13.00;71.30;;;12.59;57.14;94953.69;5052996;28;20554;-77
2021/10/12 09:47:27;;;;;;;5.28;3.78;;;13.00;71.60;;;12.59;56.98;94951.88;5062536;28;20630;-78
2021/10/12 09:50:09;;;;;;;9.13;4.63;;;12.90;71.40;;;12.59;56.88;94949.25;5020087;28;20274;-78
2021/10/12 09:52:41;;;;;;;6.20;3.78;;;13.00;71.70;;;12.61;56.99;94946.44;5051888;28;20267;-78
2021/10/12 09:55:09;;;;;;;4.90;3.58;;;12.90;71.50;;;12.59;57.02;94937.91;5035762;28;20273;-78
2021/10/12 09:57:38;;;;;;;4.72;3.78;;;13.00;71.50;;;12.57;56.86;94951.28;5050976;28;20623;-78
2021/10/12 10:00:08;;;;;;;12.35;8.30;;;12.90;71.30;;;12.56;56.93;94935.69;5035223;28;20278;-77
2021/10/12 10:02:39;;;;;;;6.18;4.45;;;12.90;71.40;;;12.52;56.87;94924.75;5037595;28;20245;-78
2021/10/12 10:05:09;;;;;;;7.07;3.90;;;12.90;71.40;;;12.58;56.93;94933.66;5035358;28;20265;-78
2021/10/12 10:07:48;;;;;;;4.85;3.30;;;12.90;71.40;;;12.57;56.84;94924.16;5033004;28;20575;-78
2021/10/12 10:10:36;;;;;;;5.63;3.80;;;12.90;71.10;;;12.58;56.74;94917.88;5052395;28;20215;-78
2021/10/12 10:13:03;;;;;;;7.90;4.82;;;12.90;71.20;;;12.55;56.65;94918.28;5019084;28;20229;-77
2021/10/12 10:15:31;;;;;;;5.38;4.05;;;12.90;71.10;;;12.58;56.67;94915.25;5037847;28;20219;-78
2021/10/12 10:17:59;;;;;;;7.13;4.45;;;12.90;71.20;;;12.57;56.86;94918.88;5052237;28;20657;-78
2021/10/12 10:20:27;;;;;;;5.65;4.00;;;13.00;71.30;;;12.55;56.62;94907.75;5057073;28;20665;-78
2021/10/12 10:22:57;;;;;;;4.68;3.40;;;12.90;71.20;;;12.56;56.93;94907.56;5034705;28;20250;-78
2021/10/12 10:25:29;;;;;;;8.07;5.10;;;12.90;71.30;;;12.59;56.64;94916.88;5019705;28;20199;-79